Flight Track Log - Related Links

Times and Time Zones

All times are in EST time to prevent confusion due to time zone crossing. See the N559LC flight status page for this flight to view local times or setup timezone preferences in your user account.

Time Position Orientation Groundspeed Altitude Reporting Facility
EST Latitude Longitude Course Direction KTS MPH feet Rate Location/Type
Fri 05:05:06 PM 26.4669 -80.1614 314° West 287 330 5,100  Level Miami Center
Fri 05:06:06 PM 26.5358 -80.1681 355° North 297 342 7,900 2,750 Climbing Miami Center
Fri 05:07:06 PM 26.5694 -80.2456 296° West 258 297 10,600 2,550 Climbing Miami Center
Fri 05:08:06 PM 26.6069 -80.3442 293° West 292 336 13,000 1,950 Climbing Miami Center
Fri 05:09:00 PM 26.7633 -80.6152 314° West  Level FlightAware Approximate
Fri 05:09:06 PM 26.6678 -80.4158 314° West 335 386 14,500  Level Miami Center
Fri 05:10:06 PM 26.7514 -80.4997 318° Northwest 360 414 16,800 2,250 Climbing Miami Center
Fri 05:11:06 PM 26.8308 -80.5789 318° Northwest 372 428 19,000 2,000 Climbing Miami Center
Fri 05:12:06 PM 26.9144 -80.6586 320° Northwest 386 444 20,800 1,950 Climbing Miami Center
Fri 05:13:06 PM 26.9978 -80.7381 320° Northwest 386 444 22,900 1,100 Climbing Miami Center
Fri 05:14:06 PM 27.0814 -80.8203 319° Northwest 396 456 23,000 50 Climbing Miami Center
Fri 05:15:06 PM 27.1667 -80.9025 319° Northwest 402 463 23,000 950 Level Miami Center
Fri 05:16:06 PM 27.2542 -80.9872 319° Northwest 402 463 24,900 2,100 Climbing Miami Center
Fri 05:17:06 PM 27.3211 -81.0506 320° Northwest 396 456 27,200 1,950 Climbing Miami Center
Fri 05:18:06 PM 27.4103 -81.1425 318° Northwest 389 448 28,800 1,500 Climbing Miami Center
Fri 05:19:06 PM 27.4956 -81.2231 320° Northwest 389 448 30,200 1,400 Climbing Miami Center
Fri 05:20:06 PM 27.5786 -81.3081 318° Northwest 394 453 31,600 1,000 Climbing Miami Center
Fri 05:21:06 PM 27.6594 -81.3886 319° Northwest 410 472 32,200 800 Climbing Miami Center
Fri 05:22:06 PM 27.7506 -81.4767 319° Northwest 427 491 33,200 1,500 Climbing Miami Center
Fri 05:23:06 PM 27.8475 -81.5769 318° Northwest 435 501 35,200 1,850 Climbing Miami Center
Fri 05:24:06 PM 27.9364 -81.6650 319° Northwest 430 495 36,900 1,720 Climbing Miami Center
Fri 05:25:43 PM 28.0744 -81.7964 320° Northwest 418 481 39,700 1,682 Climbing Jacksonville Center
Fri 05:26:43 PM 28.1564 -81.8803 318° Northwest 404 465 41,300 1,550 Climbing Jacksonville Center
Fri 05:27:43 PM 28.2342 -81.9619 317° Northwest 393 452 42,800 850 Climbing Jacksonville Center
Fri 05:28:43 PM 28.3078 -82.0461 315° West 380 437 43,000 100 Climbing Jacksonville Center
Fri 05:29:43 PM 28.3856 -82.1353 315° West 380 437 43,000  Level Jacksonville Center
Fri 05:30:43 PM 28.4611 -82.2244 314° West 387 445 43,000  Level Jacksonville Center
Fri 05:31:43 PM 28.5389 -82.3136 315° West 392 451 43,000  Level Jacksonville Center
Fri 05:32:43 PM 28.6186 -82.4078 314° West 397 457 43,000  Level Jacksonville Center
Fri 05:33:43 PM 28.6794 -82.4808 314° West 397 457 43,000  Level Jacksonville Center
Fri 05:34:43 PM 28.7653 -82.5775 315° West 397 457 43,000  Level Jacksonville Center
Fri 05:35:43 PM 28.8425 -82.6675 314° West 397 457 43,000  Level Jacksonville Center
Fri 05:36:43 PM 28.9242 -82.7644 314° West 397 457 43,000  Level Jacksonville Center
Fri 05:37:43 PM 29.0014 -82.8594 313° West 397 457 43,000  Level Jacksonville Center
Fri 05:38:43 PM 29.0850 -82.9519 316° Northwest 402 463 43,000  Level Jacksonville Center
Fri 05:39:42 PM 29.1619 -83.0447 314° West 402 463 43,000  Level Jacksonville Center
Fri 05:40:43 PM 29.2433 -83.1425 314° West 402 463 43,000  Level Jacksonville Center
Fri 05:41:43 PM 29.3267 -83.2403 314° West 413 475 43,000  Level Jacksonville Center
Fri 05:42:43 PM 29.4097 -83.3358 315° West 413 475 43,000  Level Jacksonville Center
Fri 05:43:43 PM 29.4908 -83.4342 313° West 418 481 43,000  Level Jacksonville Center
Fri 05:44:43 PM 29.5717 -83.5325 313° West 423 487 43,000  Level Jacksonville Center
Fri 05:45:43 PM 29.6547 -83.6286 315° West 423 487 43,000  Level Jacksonville Center
Fri 05:46:43 PM 29.7356 -83.7272 313° West 423 487 43,000  Level Jacksonville Center
Fri 05:47:43 PM 29.8225 -83.8311 314° West 418 481 43,000  Level Jacksonville Center
Fri 05:48:42 PM 29.9033 -83.9278 314° West 418 481 43,000  Level Jacksonville Center
Fri 05:50:43 PM 30.0622 -84.1189 314° West 418 481 43,000  Level Jacksonville Center
Fri 05:51:43 PM 30.1344 -84.2039 315° West 418 481 43,000  Level Jacksonville Center
Fri 05:52:43 PM 30.2108 -84.2986 313° West 413 475 43,000  Level Jacksonville Center
Fri 05:53:43 PM 30.2911 -84.3961 314° West 413 475 43,000  Level Jacksonville Center
Fri 05:56:43 PM 30.5275 -84.6869 314° West 418 481 43,000  Level Jacksonville Center
Fri 05:57:43 PM 30.6053 -84.7825 313° West 418 481 43,000  Level Jacksonville Center
Fri 05:58:43 PM 30.6833 -84.8781 314° West 418 481 43,000  Level Jacksonville Center
Fri 05:59:43 PM 30.7611 -84.9742 313° West 407 468 43,000  Level Jacksonville Center
Fri 06:00:43 PM 30.8347 -85.0675 313° West 402 463 43,000  Level Jacksonville Center
Fri 06:01:43 PM 30.9122 -85.1639 313° West 397 457 43,000  Level Jacksonville Center
Fri 06:02:00 PM 30.8956 -85.1377 314° West  Level FlightAware Approximate
Fri 06:02:43 PM 31.0000 -85.2703 314° West 402 463 43,000  Level Jacksonville Center
Fri 06:03:43 PM 31.0775 -85.3692 312° West 402 463 43,000  Level Jacksonville Center
Fri 06:04:43 PM 31.1550 -85.4658 313° West 402 463 43,000  Level Jacksonville Center
Fri 06:05:43 PM 31.2344 -85.5653 313° West 407 468 43,000  Level Jacksonville Center
Fri 06:06:43 PM 31.3097 -85.6597 313° West 412 474 43,000  Level Jacksonville Center
Fri 06:08:27 PM 31.4436 -85.8353 312° West 419 482 43,000  Level Atlanta Center
Fri 06:09:27 PM 31.5069 -85.9119 314° West 419 482 43,000  Level Atlanta Center
Fri 06:10:27 PM 31.5889 -86.0183 312° West 414 476 43,000  Level Atlanta Center
Fri 06:11:27 PM 31.6667 -86.1153 313° West 409 471 43,000  Level Atlanta Center
Fri 06:12:27 PM 31.7422 -86.2147 312° West 409 471 43,000 -400 Level Atlanta Center
Fri 06:13:27 PM 31.8175 -86.3119 312° West 404 465 42,200 -950 Descending Atlanta Center
Fri 06:14:27 PM 31.8992 -86.4044 316° Northwest 404 465 41,100 -1,450 Descending Atlanta Center
Fri 06:15:27 PM 32.0125 -86.4931 326° Northwest 423 487 39,300 -2,000 Descending Atlanta Center
Fri 06:16:27 PM 32.1067 -86.5717 325° Northwest 428 493 37,100 -1,150 Descending Atlanta Center
Fri 06:17:27 PM 32.1992 -86.6481 325° Northwest 417 480 37,000 -1,000 Descending Atlanta Center
Fri 06:18:27 PM 32.2811 -86.7192 324° Northwest 417 480 35,100 -1,500 Descending Atlanta Center
Fri 06:19:27 PM 32.3794 -86.8008 325° Northwest 422 486 34,000 -900 Descending Atlanta Center
Fri 06:20:27 PM 32.4819 -86.8828 326° Northwest 427 491 33,300 -500 Descending Atlanta Center
Fri 06:21:27 PM 32.5803 -86.9672 324° Northwest 438 504 33,000 -650 Descending Atlanta Center
Fri 06:22:27 PM 32.6803 -87.0544 324° Northwest 444 511 32,000 -1,500 Descending Atlanta Center
Fri 06:23:27 PM 32.7869 -87.1347 328° Northwest 444 511 30,000 -2,000 Descending Atlanta Center
Fri 06:24:27 PM 32.8889 -87.2250 323° Northwest 444 511 28,000 -2,000 Descending Atlanta Center
Fri 06:25:27 PM 32.9931 -87.3131 325° Northwest 450 518 26,000 -1,182 Descending Atlanta Center
Fri 06:27:50 PM 33.2114 -87.4975 325° Northwest 415 478 24,000 -585 Descending Memphis Center
Fri 06:28:52 PM 33.3028 -87.6133 313° West 401 461 24,000  Level Memphis Center
Fri 06:29:55 PM 33.3628 -87.7217 304° West 390 449 24,000  Level Memphis Center
Fri 06:30:29 PM 33.3989 -87.7886 303° West 389 448 24,000  Level Memphis Center
Fri 06:30:57 PM 33.4231 -87.8294 305° West 390 449 24,000 -98 Level Memphis Center
Fri 06:31:30 PM 33.4600 -87.8953 304° West 391 450 23,900 -484 Descending Memphis Center
Fri 06:31:59 PM 33.4847 -87.9381 305° West 392 451 23,500 -1,222 Descending Memphis Center
Fri 06:32:24 PM 33.5144 -87.9919 303° West 391 450 22,800 -1,355 Descending Memphis Center
Fri 06:33:01 PM 33.5461 -88.0442 306° West 389 448 22,100 -1,418 Descending Memphis Center
Fri 06:33:19 PM 33.5711 -88.0867 305° West 387 445 21,500 -1,452 Descending Memphis Center
Fri 06:34:03 PM 33.6103 -88.1472 308° West 386 444 20,600 -1,545 Descending Memphis Center
Fri 06:34:25 PM 33.6444 -88.2036 306° West 377 434 19,800 -1,452 Descending Memphis Center
Fri 06:35:05 PM 33.6719 -88.2481 307° West 380 437 19,100 -1,353 Descending Memphis Center
Fri 06:36:07 PM 33.7447 -88.3667 306° West 372 428 17,500 -1,500 Descending Memphis Center
Fri 06:37:09 PM 33.8036 -88.4625 307° West 364 419 16,000 -1,500 Descending Memphis Center
Fri 06:38:11 PM 33.8608 -88.5583 306° West 356 410 14,400 -1,500 Descending Memphis Center
Fri 06:39:13 PM 33.9183 -88.6519 307° West 351 404 12,900 -1,452 Descending Memphis Center
Fri 06:40:15 PM 33.9711 -88.7383 306° West 336 387 11,400 -1,452 Descending Memphis Center
Fri 06:41:17 PM 34.0156 -88.8114 306° West 293 337 9,900 -1,500 Descending Memphis Center
Fri 06:42:19 PM 34.0581 -88.8842 305° West 269 310 8,300 -1,597 Descending Memphis Center
Fri 06:43:21 PM 34.1067 -88.9636 306° West 256 295 6,600 -1,548 Descending Memphis Center
Fri 06:44:23 PM 34.1483 -89.0344 305° West 255 293 5,100 -1,500 Descending Memphis Center
Fri 06:45:25 PM 34.1911 -89.1064 306° West 259 298 3,500 -871 Descending Memphis Center
Fri 06:46:27 PM 34.2331 -89.1781 305° West 259 298 3,300 -194 Descending Memphis Center

Login

Don't have an account? Register now (free) for customized features, flight alerts, and more!